Airfield :
LOGIN :

Register | Disclaimer

   EN    FR    IT 

 










Legend :    VFR   Marginal VFR   IFR   Intensive IFR   Very Intensive IFR
Visi :
Ceiling :
>= 8 km
>= 3000ft
5 to 8 km
1000 to 3000 ft
1500m to 5 km
500 to 1000 ft
800 to 1500m
200 to 500 ft
< 800m
< 200 ft
Symbols :   Thunderstorms  Fog  Heavy snow  Heavy precipitations  Wind > 20 kt
SIGMETs :     Misc.  Thunderstorms  Icing  Turbulence  Mountain Waves  Volcanic Ashes






- Airport Elevation : 1247 ft
- IATA code : PRG


LKPR - Praha Ruzyne

CURRENT METAR :
  • 270730Z 22005KT 0250 R24/0400N FZFG VV001 M01/M02 Q1022 NOSIG

EXPIRED METARs :
  • 270700Z 23004KT 0300 R24/0500N FZFG VV001 M01/M02 Q1022 NOSIG
  • 270630Z 23005KT 0550 R24/0700N FZFG VV002 M01/M02 Q1022 NOSIG
  • 270600Z 22004KT 180V240 0700 R24/1000N FZFG VV002 M01/M02 Q1022 TEMPO 0450 FZFG VV001

TAF AMD TAF LKPR
Valid from the 27 at 07:00 until the 28 at 12:00 UTC


270720Z 2707/2812 19005KT 0250 FZFG VV001
TEMPO 2707/2709 0700 FZFG OVC002
BECMG 2709/2711 1600 BR OVC004
PROB40
TEMPO 2711/2718 3000 BR BKN006
BECMG 2718/2720 0700 FZFG OVC002
TEMPO 2720/2810 0300 FZFG VV001
BECMG 2810/2812 04007KT 5000 BR BKN020



MET'MAP, your aeronautical weather chart ! - Copyright ORBIFLY December 2007 - Disclaimer

ORBIFLY MET'MAP TEAM :

Programming & Development : Alexandra Zaïnal
Concept & original design : Baudouin d'Aumeries
Assistance for programming : Marc-Olivier Méhu
Technical & hardware support : Manuel Goepfert

Contact : metmap@orbifly.com




SOURCES & CREDITS :

   NOAA